createdAt,value
2022-11-14T00:00:15.028Z,1009.46
2022-11-14T00:01:15.535Z,1009.46
2022-11-14T00:02:15.254Z,1009.48
2022-11-14T00:03:16.437Z,1009.52
2022-11-14T00:04:15.644Z,1009.43
2022-11-14T00:05:15.652Z,1009.50
2022-11-14T00:06:15.794Z,1009.53
2022-11-14T00:07:15.953Z,1009.50
2022-11-14T00:08:16.141Z,1009.48
2022-11-14T00:09:16.279Z,1009.48
2022-11-14T00:10:17.027Z,1009.49
2022-11-14T00:11:16.633Z,1009.54
2022-11-14T00:12:17.525Z,1009.56
2022-11-14T00:13:16.892Z,1009.55
2022-11-14T00:14:17.065Z,1009.74
2022-11-14T00:15:17.204Z,1009.73
2022-11-14T00:16:17.342Z,1009.69
2022-11-14T00:17:17.505Z,1009.73
2022-11-14T00:18:17.645Z,1009.71
2022-11-14T00:19:18.130Z,1009.69
2022-11-14T00:20:17.902Z,1009.65
2022-11-14T00:21:19.030Z,1009.66
2022-11-14T00:22:18.273Z,1009.71
2022-11-14T00:23:18.413Z,1009.72
2022-11-14T00:24:18.554Z,1009.71
2022-11-14T00:25:18.680Z,1009.76
2022-11-14T00:26:19.529Z,1009.71
2022-11-14T00:27:19.056Z,1009.76
2022-11-14T00:28:51.611Z,1009.79
2022-11-14T00:29:20.075Z,1009.76
2022-11-14T00:30:19.486Z,1009.82
2022-11-14T00:31:19.653Z,1009.81
2022-11-14T00:32:19.821Z,1009.83
2022-11-14T00:33:20.731Z,1009.87
2022-11-14T00:34:21.246Z,1009.86
2022-11-14T00:35:21.070Z,1009.84
2022-11-14T00:36:20.565Z,1009.95
2022-11-14T00:37:20.706Z,1009.92
2022-11-14T00:38:21.079Z,1009.94
2022-11-14T00:39:21.082Z,1009.84
2022-11-14T00:40:21.219Z,1009.90
2022-11-14T00:41:21.383Z,1009.83
2022-11-14T00:42:21.550Z,1009.81
2022-11-14T00:43:21.725Z,1009.82
2022-11-14T00:44:21.898Z,1009.80
2022-11-14T00:45:22.076Z,1009.78
2022-11-14T00:46:22.278Z,1009.78
2022-11-14T00:47:22.440Z,1009.77
2022-11-14T00:48:23.570Z,1009.74
2022-11-14T00:49:22.820Z,1009.75
2022-11-14T00:50:23.678Z,1009.81
2022-11-14T00:51:23.216Z,1009.77
2022-11-14T00:52:23.407Z,1009.77
2022-11-14T00:53:24.074Z,1009.79
2022-11-14T00:54:23.726Z,1009.84
2022-11-14T00:55:24.567Z,1009.81
2022-11-14T00:56:24.094Z,1009.84
2022-11-14T00:57:24.256Z,1009.79
2022-11-14T00:58:25.422Z,1009.80
2022-11-14T00:59:24.552Z,1009.78
2022-11-14T01:00:24.758Z,1009.77
2022-11-14T01:01:25.607Z,1009.77
2022-11-14T01:02:25.018Z,1009.74
2022-11-14T01:03:25.177Z,1009.76
2022-11-14T01:04:25.326Z,1009.70
2022-11-14T01:05:25.510Z,1009.80
2022-11-14T01:06:25.794Z,1009.71
2022-11-14T01:07:26.091Z,1009.69
2022-11-14T01:08:26.027Z,1009.65
2022-11-14T01:09:26.261Z,1009.74
2022-11-14T01:10:26.382Z,1009.66
2022-11-14T01:11:26.532Z,1009.62
2022-11-14T01:12:26.659Z,1009.52
2022-11-14T01:13:26.790Z,1009.53
2022-11-14T01:14:27.578Z,1009.55
2022-11-14T01:15:27.202Z,1009.53
2022-11-14T01:16:28.074Z,1009.52
2022-11-14T01:17:27.552Z,1009.48
2022-11-14T01:18:28.175Z,1009.47
2022-11-14T01:19:27.931Z,1009.53
2022-11-14T01:20:28.060Z,1009.46
2022-11-14T01:21:28.267Z,1009.55
2022-11-14T01:22:28.392Z,1009.58
2022-11-14T01:23:28.541Z,1009.56
2022-11-14T01:24:29.578Z,1009.63
2022-11-14T01:25:29.574Z,1009.58
2022-11-14T01:26:29.025Z,1009.56
2022-11-14T01:27:29.159Z,1009.56
2022-11-14T01:28:29.555Z,1009.59
2022-11-14T01:29:29.424Z,1009.62
2022-11-14T01:30:29.558Z,1009.58
2022-11-14T01:31:29.721Z,1009.58
2022-11-14T01:32:30.578Z,1009.53
2022-11-14T01:33:30.050Z,1009.56
2022-11-14T01:34:30.199Z,1009.55
2022-11-14T01:35:31.077Z,1009.52
2022-11-14T01:36:30.647Z,1009.55
2022-11-14T01:37:31.577Z,1009.58
2022-11-14T01:38:31.261Z,1009.55
2022-11-14T01:39:31.072Z,1009.57
2022-11-14T01:40:32.080Z,1009.58
2022-11-14T01:41:31.433Z,1009.55
2022-11-14T01:42:31.694Z,1009.55
2022-11-14T01:43:31.843Z,1009.53
2022-11-14T01:44:32.579Z,1009.54
2022-11-14T01:45:32.590Z,1009.47
2022-11-14T01:46:32.324Z,1009.43
2022-11-14T01:47:32.595Z,1009.42
2022-11-14T01:48:32.790Z,1009.40
2022-11-14T01:49:32.944Z,1009.37
2022-11-14T01:50:33.105Z,1009.43
2022-11-14T01:51:33.336Z,1009.37
2022-11-14T01:52:33.485Z,1009.38
2022-11-14T01:53:33.660Z,1009.34
2022-11-14T01:54:33.815Z,1009.36
2022-11-14T01:55:34.000Z,1009.33
2022-11-14T01:56:34.160Z,1009.29
2022-11-14T01:57:34.321Z,1009.32
2022-11-14T01:58:34.503Z,1009.30
2022-11-14T01:59:34.691Z,1009.24
2022-11-14T02:00:35.586Z,1009.23
2022-11-14T02:01:35.140Z,1009.18
2022-11-14T02:02:36.086Z,1009.17
2022-11-14T02:03:35.333Z,1009.18
2022-11-14T02:04:35.470Z,1009.18
2022-11-14T02:05:35.695Z,1009.20
2022-11-14T02:06:36.676Z,1009.12
2022-11-14T02:07:36.267Z,1009.18
2022-11-14T02:08:36.595Z,1009.17
2022-11-14T02:09:37.084Z,1009.14
2022-11-14T02:10:36.716Z,1009.12
2022-11-14T02:11:36.884Z,1009.13
2022-11-14T02:12:37.057Z,1009.09
2022-11-14T02:13:37.171Z,1009.10
2022-11-14T02:14:37.307Z,1009.08
2022-11-14T02:15:38.444Z,1009.09
2022-11-14T02:16:38.097Z,1009.05
2022-11-14T02:17:37.879Z,1009.07
2022-11-14T02:18:38.027Z,1009.02
2022-11-14T02:19:38.163Z,1009.05
2022-11-14T02:20:38.301Z,1009.07
2022-11-14T02:21:38.553Z,1009.06
2022-11-14T02:22:38.674Z,1009.01
2022-11-14T02:23:38.815Z,1008.94
2022-11-14T02:24:39.590Z,1008.94
2022-11-14T02:25:39.196Z,1008.98
2022-11-14T02:26:39.348Z,1008.99
2022-11-14T02:27:39.507Z,1008.96
2022-11-14T02:28:39.649Z,1008.92
2022-11-14T02:29:39.801Z,1008.97
2022-11-14T02:30:39.972Z,1008.97
2022-11-14T02:31:40.152Z,1008.96
2022-11-14T02:33:08.894Z,1008.95
2022-11-14T02:33:42.528Z,1008.94
2022-11-14T02:34:40.732Z,1008.90
2022-11-14T02:35:40.882Z,1008.90
2022-11-14T02:36:40.987Z,1008.91
2022-11-14T02:37:42.215Z,1008.90
2022-11-14T02:38:41.334Z,1008.85
2022-11-14T02:39:41.455Z,1008.87
2022-11-14T02:40:41.574Z,1008.91
2022-11-14T02:41:41.797Z,1008.88
2022-11-14T02:42:42.592Z,1008.90
2022-11-14T02:43:42.175Z,1008.89
2022-11-14T02:44:42.396Z,1008.91
2022-11-14T02:45:42.634Z,1008.96
2022-11-14T02:46:42.739Z,1008.96
2022-11-14T02:47:43.597Z,1008.94
2022-11-14T02:48:43.058Z,1008.97
2022-11-14T02:49:44.092Z,1009.01
2022-11-14T02:50:43.469Z,1008.99
2022-11-14T02:51:44.108Z,1008.99
2022-11-14T02:52:43.850Z,1008.93
2022-11-14T02:53:44.038Z,1008.91
2022-11-14T02:54:45.103Z,1008.91
2022-11-14T02:55:44.343Z,1008.95
2022-11-14T02:57:17.881Z,1008.85
2022-11-14T02:57:44.610Z,1008.88
2022-11-14T02:58:45.631Z,1008.89
2022-11-14T02:59:44.862Z,1008.93
2022-11-14T03:01:13.543Z,1008.89
2022-11-14T03:01:47.311Z,1009.03
2022-11-14T03:02:45.438Z,1009.03
2022-11-14T03:03:45.585Z,1008.95
2022-11-14T03:04:46.628Z,1008.98
2022-11-14T03:05:46.626Z,1008.97
2022-11-14T03:06:46.284Z,1009.01
2022-11-14T03:07:46.637Z,1008.94
2022-11-14T03:08:46.610Z,1008.89
2022-11-14T03:09:46.850Z,1008.93
2022-11-14T03:10:46.977Z,1008.89
2022-11-14T03:11:47.099Z,1008.83
2022-11-14T03:12:47.343Z,1008.83
2022-11-14T03:13:47.479Z,1008.84
2022-11-14T03:14:47.637Z,1008.80
2022-11-14T03:15:47.751Z,1008.85
2022-11-14T03:16:47.885Z,1008.87
2022-11-14T03:17:48.018Z,1008.85
2022-11-14T03:18:49.157Z,1008.77
2022-11-14T03:19:48.641Z,1008.78
2022-11-14T03:20:48.518Z,1008.75
2022-11-14T03:21:48.664Z,1008.79
2022-11-14T03:22:48.789Z,1008.72
2022-11-14T03:23:48.918Z,1008.75
2022-11-14T03:24:49.172Z,1008.73
2022-11-14T03:25:49.309Z,1008.71
2022-11-14T03:26:49.454Z,1008.73
2022-11-14T03:27:49.594Z,1008.70
2022-11-14T03:28:49.760Z,1008.67
2022-11-14T03:29:49.937Z,1008.64
2022-11-14T03:30:50.629Z,1008.63
2022-11-14T03:31:50.649Z,1008.64
2022-11-14T03:32:50.434Z,1008.55
2022-11-14T03:33:50.529Z,1008.55
2022-11-14T03:34:50.665Z,1008.59
2022-11-14T03:35:50.827Z,1008.60
2022-11-14T03:36:50.972Z,1008.60
2022-11-14T03:37:55.209Z,1008.52
2022-11-14T03:38:54.136Z,1008.48
2022-11-14T03:39:51.695Z,1008.48
2022-11-14T03:40:51.754Z,1008.48
2022-11-14T03:41:51.891Z,1008.49
2022-11-14T03:42:52.632Z,1008.42
2022-11-14T03:43:52.286Z,1008.44
2022-11-14T03:44:52.495Z,1008.40
2022-11-14T03:45:53.652Z,1008.38
2022-11-14T03:46:52.894Z,1008.39
2022-11-14T03:47:53.048Z,1008.34
2022-11-14T03:48:53.213Z,1008.37
2022-11-14T03:49:53.399Z,1008.36
2022-11-14T03:50:53.569Z,1008.29
2022-11-14T03:51:53.748Z,1008.25
2022-11-14T03:52:53.901Z,1008.28
2022-11-14T03:53:54.046Z,1008.23
2022-11-14T03:54:54.280Z,1008.24
2022-11-14T03:55:54.448Z,1008.21
2022-11-14T03:56:54.567Z,1008.19
2022-11-14T03:57:54.801Z,1008.24
2022-11-14T03:58:54.933Z,1008.22
2022-11-14T03:59:55.637Z,1008.22
2022-11-14T04:00:55.308Z,1008.25
2022-11-14T04:01:55.489Z,1008.20
2022-11-14T04:02:55.658Z,1008.18
2022-11-14T04:03:55.768Z,1008.24
2022-11-14T04:04:56.013Z,1008.16
2022-11-14T04:05:56.163Z,1008.16
2022-11-14T04:06:56.277Z,1008.18
2022-11-14T04:07:56.485Z,1008.12
2022-11-14T04:08:56.591Z,1008.12
2022-11-14T04:09:56.810Z,1008.14
2022-11-14T04:10:56.912Z,1008.17
2022-11-14T04:11:57.143Z,1008.17
2022-11-14T04:12:57.654Z,1008.14
2022-11-14T04:13:57.489Z,1008.18
2022-11-14T04:14:58.146Z,1008.19
2022-11-14T04:15:57.786Z,1008.23
2022-11-14T04:16:58.641Z,1008.26
2022-11-14T04:17:58.106Z,1008.32
2022-11-14T04:18:58.328Z,1008.30
2022-11-14T04:19:58.489Z,1008.39
2022-11-14T04:20:58.637Z,1008.33
2022-11-14T04:21:58.750Z,1008.30
2022-11-14T04:22:58.893Z,1008.26
2022-11-14T04:23:59.018Z,1008.34
2022-11-14T04:24:59.223Z,1008.35
2022-11-14T04:26:00.359Z,1008.33
2022-11-14T04:26:59.567Z,1008.26
2022-11-14T04:27:59.683Z,1008.19
2022-11-14T04:28:59.926Z,1008.27
2022-11-14T04:30:00.048Z,1008.27
2022-11-14T04:31:00.657Z,1008.20
2022-11-14T04:32:00.654Z,1008.16
2022-11-14T04:33:00.526Z,1008.21
2022-11-14T04:34:00.649Z,1008.17
2022-11-14T04:35:00.781Z,1008.11
2022-11-14T04:36:01.649Z,1008.02
2022-11-14T04:37:01.168Z,1008.12
2022-11-14T04:38:01.318Z,1008.10
2022-11-14T04:39:01.473Z,1008.06
2022-11-14T04:40:01.721Z,1008.04
2022-11-14T04:41:01.863Z,1008.04
2022-11-14T04:42:02.018Z,1008.02
2022-11-14T04:43:03.167Z,1007.94
2022-11-14T04:44:02.441Z,1007.88
2022-11-14T04:45:02.657Z,1007.89
2022-11-14T04:46:02.727Z,1007.88
2022-11-14T04:47:03.655Z,1007.79
2022-11-14T04:48:03.035Z,1007.78
2022-11-14T04:49:03.190Z,1007.77
2022-11-14T04:50:03.338Z,1007.79
2022-11-14T04:51:03.475Z,1007.77
2022-11-14T04:52:03.641Z,1007.80
2022-11-14T04:53:03.783Z,1007.74
2022-11-14T04:54:03.956Z,1007.69
2022-11-14T04:55:04.301Z,1007.69
2022-11-14T04:56:04.306Z,1007.75
2022-11-14T04:57:04.423Z,1007.74
2022-11-14T04:58:05.149Z,1007.74
2022-11-14T04:59:04.793Z,1007.68
2022-11-14T05:00:04.953Z,1007.66
2022-11-14T05:01:05.668Z,1007.66
2022-11-14T05:02:06.149Z,1007.74
2022-11-14T05:03:05.400Z,1007.72
2022-11-14T05:04:05.547Z,1007.78
2022-11-14T05:05:05.683Z,1007.75
2022-11-14T05:06:05.826Z,1007.73
2022-11-14T05:07:06.025Z,1007.74
2022-11-14T05:08:06.084Z,1007.77
2022-11-14T05:09:06.255Z,1007.78
2022-11-14T05:10:06.374Z,1007.75
2022-11-14T05:11:07.148Z,1007.75
2022-11-14T05:12:06.649Z,1007.69
2022-11-14T05:13:06.776Z,1007.72
2022-11-14T05:14:06.920Z,1007.76
2022-11-14T05:15:07.043Z,1007.70
2022-11-14T05:16:07.187Z,1007.72
2022-11-14T05:17:07.302Z,1007.71
2022-11-14T05:18:07.533Z,1007.74
2022-11-14T05:19:07.648Z,1007.71
2022-11-14T05:20:07.875Z,1007.75
2022-11-14T05:21:08.176Z,1007.67
2022-11-14T05:22:08.183Z,1007.72
2022-11-14T05:23:08.340Z,1007.76
2022-11-14T05:24:08.455Z,1007.74
2022-11-14T05:25:08.693Z,1007.69
2022-11-14T05:26:08.804Z,1007.72
2022-11-14T05:27:08.927Z,1007.74
2022-11-14T05:28:09.171Z,1007.74
2022-11-14T05:29:09.174Z,1007.75
2022-11-14T05:30:09.298Z,1007.76
2022-11-14T05:31:09.441Z,1007.84
2022-11-14T05:32:15.071Z,1007.70
2022-11-14T05:33:11.815Z,1007.75
2022-11-14T05:34:10.662Z,1007.71
2022-11-14T05:35:10.160Z,1007.76
2022-11-14T05:36:10.334Z,1007.77
2022-11-14T05:37:10.669Z,1007.78
2022-11-14T05:38:10.649Z,1007.72
2022-11-14T05:39:10.885Z,1007.67
2022-11-14T05:40:11.038Z,1007.68
2022-11-14T05:41:11.171Z,1007.68
2022-11-14T05:42:11.321Z,1007.65
2022-11-14T05:43:11.445Z,1007.59
2022-11-14T05:44:11.562Z,1007.58
2022-11-14T05:45:12.170Z,1007.64
2022-11-14T05:46:13.034Z,1007.60
2022-11-14T05:47:12.260Z,1007.62
2022-11-14T05:48:12.488Z,1007.62
2022-11-14T05:49:12.606Z,1007.60
2022-11-14T05:50:12.758Z,1007.64
2022-11-14T05:51:13.659Z,1007.66
2022-11-14T05:52:13.022Z,1007.65
2022-11-14T05:53:13.181Z,1007.64
2022-11-14T05:54:13.335Z,1007.73
2022-11-14T05:55:13.675Z,1007.72
2022-11-14T05:56:13.674Z,1007.71
2022-11-14T05:57:13.806Z,1007.68
2022-11-14T05:58:13.971Z,1007.71
2022-11-14T05:59:14.113Z,1007.66
2022-11-14T06:00:15.165Z,1007.72
2022-11-14T06:01:14.401Z,1007.73
2022-11-14T06:02:14.592Z,1007.75
2022-11-14T06:03:14.796Z,1007.72
2022-11-14T06:04:14.917Z,1007.75
2022-11-14T06:05:15.662Z,1007.82
2022-11-14T06:06:15.184Z,1007.81
2022-11-14T06:07:19.888Z,1007.79
2022-11-14T06:08:17.545Z,1007.71
2022-11-14T06:09:15.769Z,1007.80
2022-11-14T06:10:15.901Z,1007.75
2022-11-14T06:11:16.034Z,1007.79
2022-11-14T06:12:16.182Z,1007.75
2022-11-14T06:13:16.305Z,1007.73
2022-11-14T06:14:17.165Z,1007.71
2022-11-14T06:15:16.664Z,1007.66
2022-11-14T06:16:16.810Z,1007.64
2022-11-14T06:17:16.958Z,1007.67
2022-11-14T06:18:17.205Z,1007.62
2022-11-14T06:19:18.165Z,1007.65
2022-11-14T06:20:17.516Z,1007.68
2022-11-14T06:21:17.773Z,1007.64
2022-11-14T06:22:17.906Z,1007.74
2022-11-14T06:23:23.461Z,1007.74
2022-11-14T06:24:21.167Z,1007.68
2022-11-14T06:25:18.468Z,1007.74
2022-11-14T06:26:18.590Z,1007.72
2022-11-14T06:27:18.717Z,1007.78
2022-11-14T06:28:18.873Z,1007.76
2022-11-14T06:29:19.664Z,1007.85
2022-11-14T06:30:19.683Z,1007.80
2022-11-14T06:31:19.341Z,1007.85
2022-11-14T06:32:19.503Z,1007.79
2022-11-14T06:33:19.650Z,1007.81
2022-11-14T06:34:20.179Z,1007.77
2022-11-14T06:35:20.676Z,1007.77
2022-11-14T06:36:20.164Z,1007.78
2022-11-14T06:37:20.298Z,1007.83
2022-11-14T06:38:20.426Z,1007.80
2022-11-14T06:39:20.598Z,1007.81
2022-11-14T06:40:20.769Z,1007.84
2022-11-14T06:41:20.910Z,1007.80
2022-11-14T06:42:21.045Z,1007.80
2022-11-14T06:43:21.178Z,1007.73
2022-11-14T06:44:25.134Z,1007.72
2022-11-14T06:45:22.473Z,1007.73
2022-11-14T06:46:22.178Z,1007.82
2022-11-14T06:47:21.800Z,1007.79
2022-11-14T06:48:21.946Z,1007.81
2022-11-14T06:49:22.104Z,1007.84
2022-11-14T06:50:22.289Z,1007.77
2022-11-14T06:51:22.465Z,1007.84
2022-11-14T06:52:22.703Z,1007.78
2022-11-14T06:53:22.805Z,1007.76
2022-11-14T06:54:22.968Z,1007.81
2022-11-14T06:55:25.525Z,1007.86
2022-11-14T06:56:24.287Z,1007.73
2022-11-14T06:57:24.172Z,1007.80
2022-11-14T06:58:23.563Z,1007.80
2022-11-14T06:59:23.701Z,1007.79
2022-11-14T07:00:23.852Z,1007.69
2022-11-14T07:01:24.042Z,1007.68
2022-11-14T07:02:24.189Z,1007.67
2022-11-14T07:03:24.409Z,1007.66
2022-11-14T07:04:24.571Z,1007.65
2022-11-14T07:05:24.698Z,1007.58
2022-11-14T07:06:24.862Z,1007.54
2022-11-14T07:07:25.130Z,1007.59
2022-11-14T07:08:25.687Z,1007.57
2022-11-14T07:09:26.170Z,1007.42
2022-11-14T07:10:25.658Z,1007.46
2022-11-14T07:11:25.811Z,1007.38
2022-11-14T07:12:25.958Z,1007.43
2022-11-14T07:13:26.130Z,1007.30
2022-11-14T07:14:26.286Z,1007.25
2022-11-14T07:15:26.700Z,1007.29
2022-11-14T07:16:26.597Z,1007.26
2022-11-14T07:17:31.191Z,1007.17
2022-11-14T07:18:28.178Z,1007.19
2022-11-14T07:19:27.121Z,1007.18
2022-11-14T07:20:27.687Z,1007.03
2022-11-14T07:21:27.436Z,1007.05
2022-11-14T07:22:28.188Z,1006.99
2022-11-14T07:23:27.712Z,1006.94
2022-11-14T07:24:28.190Z,1006.95
2022-11-14T07:25:28.197Z,1006.91
2022-11-14T07:26:28.240Z,1006.86
2022-11-14T07:27:29.180Z,1006.81
2022-11-14T07:28:28.909Z,1006.84
2022-11-14T07:29:28.731Z,1006.72
2022-11-14T07:30:28.887Z,1006.67
2022-11-14T07:31:29.054Z,1006.67
2022-11-14T07:32:29.216Z,1006.66
2022-11-14T07:33:29.386Z,1006.69
2022-11-14T07:34:29.550Z,1006.65
2022-11-14T07:35:29.687Z,1006.54
2022-11-14T07:36:30.189Z,1006.43
2022-11-14T07:37:29.988Z,1006.44
2022-11-14T07:38:31.119Z,1006.47
2022-11-14T07:39:30.365Z,1006.36
2022-11-14T07:40:30.561Z,1006.32
2022-11-14T07:41:31.692Z,1006.30
2022-11-14T07:42:30.944Z,1006.28
2022-11-14T07:43:31.681Z,1006.12
2022-11-14T07:44:31.333Z,1006.09
2022-11-14T07:45:31.496Z,1006.12
2022-11-14T07:46:31.666Z,1006.05
2022-11-14T07:47:31.825Z,1006.05
2022-11-14T07:48:32.268Z,1006.04
2022-11-14T07:49:32.195Z,1006.06
2022-11-14T07:50:32.357Z,1006.02
2022-11-14T07:51:32.697Z,1005.94
2022-11-14T07:52:32.724Z,1005.96
2022-11-14T07:53:32.858Z,1005.90
2022-11-14T07:54:33.019Z,1005.77
2022-11-14T07:55:33.187Z,1005.82
2022-11-14T07:56:33.319Z,1005.92
2022-11-14T07:57:38.905Z,1005.80
2022-11-14T07:58:36.689Z,1005.79
2022-11-14T07:59:33.905Z,1005.81
2022-11-14T08:00:34.770Z,1005.66
2022-11-14T08:01:34.771Z,1005.74
2022-11-14T08:02:34.442Z,1005.59
2022-11-14T08:03:34.633Z,1005.59
2022-11-14T08:04:34.780Z,1005.60
2022-11-14T08:05:34.934Z,1005.53
2022-11-14T08:06:35.121Z,1005.53
2022-11-14T08:07:35.356Z,1005.44
2022-11-14T08:08:35.463Z,1005.44
2022-11-14T08:09:35.600Z,1005.36
2022-11-14T08:10:35.747Z,1005.36
2022-11-14T08:11:36.201Z,1005.26
2022-11-14T08:12:36.106Z,1005.29
2022-11-14T08:13:36.268Z,1005.26
2022-11-14T08:14:36.417Z,1005.21
2022-11-14T08:15:36.575Z,1005.20
2022-11-14T08:16:36.705Z,1005.10
2022-11-14T08:17:36.839Z,1005.12
2022-11-14T08:18:37.689Z,1005.13
2022-11-14T08:19:37.215Z,1005.04
2022-11-14T08:20:37.412Z,1005.05
2022-11-14T08:21:37.582Z,1005.06
2022-11-14T08:22:37.742Z,1005.00
2022-11-14T08:23:37.885Z,1005.00
2022-11-14T08:24:38.025Z,1004.93
2022-11-14T08:25:38.192Z,1004.71
2022-11-14T08:26:38.360Z,1004.32
2022-11-14T08:27:38.520Z,1003.95
2022-11-14T08:28:38.665Z,1003.66
2022-11-14T08:29:38.829Z,1003.32
2022-11-14T08:30:38.979Z,1003.01
2022-11-14T08:31:39.202Z,1002.93
2022-11-14T08:32:39.357Z,1002.89
2022-11-14T08:33:39.539Z,1002.97
2022-11-14T08:34:39.679Z,1003.08
2022-11-14T08:35:39.888Z,1003.13
2022-11-14T08:36:40.072Z,1003.25
2022-11-14T08:37:40.197Z,1003.31
2022-11-14T08:38:40.340Z,1003.49
2022-11-14T08:39:40.520Z,1003.55
2022-11-14T08:40:40.659Z,1003.60
2022-11-14T08:41:40.811Z,1003.67
2022-11-14T08:42:40.985Z,1003.77
2022-11-14T08:43:41.175Z,1003.91
2022-11-14T08:44:41.341Z,1003.99
2022-11-14T08:45:41.507Z,1004.03
2022-11-14T08:46:41.709Z,1004.18
2022-11-14T08:47:41.874Z,1004.15
2022-11-14T08:48:42.693Z,1004.24
2022-11-14T08:49:42.194Z,1004.32
2022-11-14T08:50:42.343Z,1004.39
2022-11-14T08:51:42.489Z,1004.41
2022-11-14T08:52:42.685Z,1004.41
2022-11-14T08:53:42.827Z,1004.52
2022-11-14T08:54:42.964Z,1004.49
2022-11-14T08:55:43.099Z,1004.42
2022-11-14T08:56:43.235Z,1004.32
2022-11-14T08:57:49.050Z,1004.28
2022-11-14T08:58:46.199Z,1004.33
2022-11-14T08:59:43.656Z,1004.17
2022-11-14T09:00:43.794Z,1003.97
2022-11-14T09:01:44.949Z,1003.66
2022-11-14T09:02:44.199Z,1003.47
2022-11-14T09:03:44.529Z,1003.15
2022-11-14T09:04:44.812Z,1003.01
2022-11-14T09:05:44.753Z,1002.76
2022-11-14T09:06:44.944Z,1002.57
2022-11-14T09:07:45.074Z,1002.57
2022-11-14T09:08:46.198Z,1002.37
2022-11-14T09:09:45.711Z,1002.21
2022-11-14T09:10:45.591Z,1002.11
2022-11-14T09:11:46.735Z,1002.02
2022-11-14T09:12:45.960Z,1001.92
2022-11-14T09:13:46.101Z,1001.87
2022-11-14T09:14:46.233Z,1001.89
2022-11-14T09:15:46.375Z,1001.58
2022-11-14T09:16:46.511Z,1001.56
2022-11-14T09:17:46.744Z,1001.50
2022-11-14T09:18:47.702Z,1001.47
2022-11-14T09:19:47.705Z,1001.49
2022-11-14T09:20:47.209Z,1001.47
2022-11-14T09:21:47.363Z,1001.52
2022-11-14T09:22:47.554Z,1001.87
2022-11-14T09:23:47.701Z,1001.89
2022-11-14T09:24:48.705Z,1002.06
2022-11-14T09:25:48.107Z,1002.05
2022-11-14T09:26:52.118Z,1002.22
2022-11-14T09:27:49.404Z,1002.19
2022-11-14T09:28:48.499Z,1002.05
2022-11-14T09:29:48.636Z,1002.07
2022-11-14T09:30:48.763Z,1001.92
2022-11-14T09:31:48.883Z,1001.82
2022-11-14T09:32:49.032Z,1001.64
2022-11-14T09:33:49.180Z,1001.49
2022-11-14T09:34:49.402Z,1001.46
2022-11-14T09:35:49.639Z,1001.40
2022-11-14T09:36:49.761Z,1001.32
2022-11-14T09:37:49.912Z,1001.25
2022-11-14T09:38:50.011Z,1001.00
2022-11-14T09:39:50.142Z,1000.92
2022-11-14T09:40:50.278Z,1001.05
2022-11-14T09:41:50.428Z,1001.05
2022-11-14T09:42:50.605Z,1001.22
2022-11-14T09:43:50.771Z,1001.30
2022-11-14T09:44:50.896Z,1001.47
2022-11-14T09:45:51.049Z,1001.61
2022-11-14T09:46:51.187Z,1001.82
2022-11-14T09:47:51.336Z,1002.03
2022-11-14T09:48:51.505Z,1002.25
2022-11-14T09:49:51.659Z,1002.43
2022-11-14T09:50:51.822Z,1002.63
2022-11-14T09:51:51.987Z,1002.81
2022-11-14T09:52:52.114Z,1003.14
2022-11-14T09:53:52.751Z,1003.21
2022-11-14T09:54:52.387Z,1003.43
2022-11-14T09:55:52.531Z,1003.53
2022-11-14T09:56:52.678Z,1003.67
2022-11-14T09:57:52.811Z,1003.74
2022-11-14T09:58:52.967Z,1003.92
2022-11-14T09:59:53.159Z,1003.94
2022-11-14T10:00:53.343Z,1004.01
2022-11-14T10:01:53.523Z,1004.06
2022-11-14T10:02:54.215Z,1004.21
2022-11-14T10:03:53.857Z,1004.18
2022-11-14T10:04:54.231Z,1004.31
2022-11-14T10:05:54.136Z,1004.27
2022-11-14T10:06:54.323Z,1004.32
2022-11-14T10:07:54.403Z,1004.44
2022-11-14T10:08:54.566Z,1004.47
2022-11-14T10:09:54.749Z,1004.56
2022-11-14T10:10:54.940Z,1004.56
2022-11-14T10:11:55.722Z,1004.63
2022-11-14T10:12:55.306Z,1004.64
2022-11-14T10:13:55.497Z,1004.71
2022-11-14T10:14:55.731Z,1004.74
2022-11-14T10:15:56.721Z,1004.72
2022-11-14T10:16:56.140Z,1004.68
2022-11-14T10:17:57.236Z,1004.73
2022-11-14T10:18:57.228Z,1004.81
2022-11-14T10:19:56.521Z,1004.80
2022-11-14T10:20:56.676Z,1004.83
2022-11-14T10:21:56.833Z,1004.90
2022-11-14T10:23:01.395Z,1004.89
2022-11-14T10:23:58.727Z,1004.97
2022-11-14T10:24:57.354Z,1005.03
2022-11-14T10:25:57.487Z,1005.01
2022-11-14T10:26:58.224Z,1005.00
2022-11-14T10:28:04.828Z,1004.96
2022-11-14T10:29:00.054Z,1004.94
2022-11-14T10:29:58.312Z,1005.00
2022-11-14T10:30:58.438Z,1004.98
2022-11-14T10:31:58.598Z,1004.94
2022-11-14T10:32:58.742Z,1004.98
2022-11-14T10:33:58.881Z,1005.02
2022-11-14T10:34:59.053Z,1005.08
2022-11-14T10:35:59.469Z,1005.11
2022-11-14T10:36:59.379Z,1005.20
2022-11-14T10:37:59.512Z,1005.19
2022-11-14T10:38:59.658Z,1005.26
2022-11-14T10:39:59.776Z,1005.19
2022-11-14T10:40:59.930Z,1005.21
2022-11-14T10:42:04.536Z,1005.19
2022-11-14T10:43:03.225Z,1005.12
2022-11-14T10:44:01.226Z,1005.10
2022-11-14T10:45:00.615Z,1004.97
2022-11-14T10:46:01.249Z,1004.84
2022-11-14T10:47:01.021Z,1004.67
2022-11-14T10:48:01.176Z,1004.54
2022-11-14T10:49:01.323Z,1004.46
2022-11-14T10:50:01.484Z,1004.43
2022-11-14T10:51:01.625Z,1004.39
2022-11-14T10:52:01.768Z,1004.49
2022-11-14T10:53:01.920Z,1004.51
2022-11-14T10:54:02.093Z,1004.66
2022-11-14T10:55:02.250Z,1004.60
2022-11-14T10:56:05.181Z,1004.57
2022-11-14T10:57:03.657Z,1004.46
2022-11-14T10:58:02.775Z,1004.26
2022-11-14T10:59:02.929Z,1004.15
2022-11-14T11:00:03.112Z,1004.10
2022-11-14T11:01:03.322Z,1003.81
2022-11-14T11:02:03.401Z,1003.57
2022-11-14T11:03:04.234Z,1003.42
2022-11-14T11:04:03.811Z,1003.24
2022-11-14T11:05:03.902Z,1003.04
2022-11-14T11:06:04.068Z,1002.86
2022-11-14T11:07:04.221Z,1002.71
2022-11-14T11:08:28.218Z,1002.54
2022-11-14T11:09:06.616Z,1002.38
2022-11-14T11:10:04.721Z,1002.39
2022-11-14T11:11:05.739Z,1002.28
2022-11-14T11:12:05.114Z,1002.08
2022-11-14T11:13:05.332Z,1002.05
2022-11-14T11:14:06.246Z,1001.97
2022-11-14T11:15:05.634Z,1001.94
2022-11-14T11:16:05.829Z,1002.02
2022-11-14T11:17:06.762Z,1002.05
2022-11-14T11:18:06.164Z,1002.01
2022-11-14T11:19:06.365Z,1001.91
2022-11-14T11:20:07.699Z,1001.91
2022-11-14T11:21:07.816Z,1001.87
2022-11-14T11:22:06.866Z,1001.87
2022-11-14T11:23:07.020Z,1001.87
2022-11-14T11:24:07.220Z,1001.92
2022-11-14T11:25:08.240Z,1001.90
2022-11-14T11:26:07.518Z,1001.96
2022-11-14T11:27:07.703Z,1001.95
2022-11-14T11:28:08.737Z,1001.97
2022-11-14T11:29:07.977Z,1002.02
2022-11-14T11:30:08.137Z,1002.07
2022-11-14T11:31:09.256Z,1002.18
2022-11-14T11:32:08.403Z,1002.16
2022-11-14T11:33:08.544Z,1002.12
2022-11-14T11:34:08.704Z,1002.10
2022-11-14T11:35:08.883Z,1002.02
2022-11-14T11:36:09.741Z,1002.00
2022-11-14T11:37:09.345Z,1001.91
2022-11-14T11:38:12.933Z,1001.92
2022-11-14T11:39:11.242Z,1001.88
2022-11-14T11:40:09.849Z,1001.89
2022-11-14T11:41:15.613Z,1001.86
2022-11-14T11:42:11.311Z,1001.80
2022-11-14T11:43:38.024Z,1001.77
2022-11-14T11:44:12.642Z,1001.69
2022-11-14T11:45:10.869Z,1001.73
2022-11-14T11:46:11.743Z,1001.65
2022-11-14T11:47:11.756Z,1001.67
2022-11-14T11:48:11.434Z,1001.62
2022-11-14T11:49:12.246Z,1001.59
2022-11-14T11:50:11.716Z,1001.54
2022-11-14T11:51:12.743Z,1001.51
2022-11-14T11:52:12.107Z,1001.53
2022-11-14T11:53:12.285Z,1001.42
2022-11-14T11:54:12.441Z,1001.43
2022-11-14T11:55:13.619Z,1001.39
2022-11-14T11:56:13.749Z,1001.37
2022-11-14T11:57:20.134Z,1001.40
2022-11-14T11:58:15.120Z,1001.46
2022-11-14T11:59:13.748Z,1001.49
2022-11-14T12:00:14.304Z,1001.53
2022-11-14T12:01:14.345Z,1001.50
2022-11-14T12:02:13.914Z,1001.59
2022-11-14T12:03:14.364Z,1001.53
2022-11-14T12:04:15.265Z,1001.57
2022-11-14T12:05:15.248Z,1001.61
2022-11-14T12:06:14.760Z,1001.58
2022-11-14T12:07:14.883Z,1001.57